Search for airport 
image banner adimage banner adimage banner ad
image banner ad

10CL - Centerport

Located in Costa Mesa, United States

ICAO - 10CL, IATA -

Data provided by Airmate  

General information

Coordinates: N33°40'18" W117°52'29"
Elevation is 83 feet MSL.
 
View others Airports in California

Operational data

Special qualification required
Current time UTC:
Current local time:
METAR: KSNA 291453Z 00000KT 10SM FEW010 FEW220 21/17 A2994 RMK AO2 SLP137 T02060167 51008
TAF: KSNA 291120Z 2912/3012 VRB04KT P6SM FEW008 FM291800 22010KT P6SM SKC FM300200 VRB05KT P6SM FEW200 FM301100 VRB04KT P6SM BKN010
View NOTAMs / SUP AIP / TFR affecting this airport [VIEW]
Communications frequencies: [VIEW]

Runways:

Airport contact information

Address: Costa Mesa United States

Satellite view of 10CL